Terminal Aerodrome Forecast
Issued by NWS Tuscon, AZ

Home | Current Version | Previous Version | Text Only | Print | Product List | Glossary On
Versions: 1 2 3 4 5 6 7 8 9 10 11 12
627
FTUS45 KTWC 111127
TAFDUG
TAF
KDUG 111127Z 1112/1212 12005KT P6SM FEW140 BKN250
     FM111700 22007KT P6SM FEW140 BKN250
     FM112000 26010G18KT P6SM FEW140 BKN250
     FM120100 33007KT P6SM FEW140 BKN250
     FM120600 VRB04KT P6SM BKN250=

USA.gov is the U.S. government's official web portal to all federal, state and local government web resources and services.